sensor_id;sensor_type;location;lat;lon;timestamp;temperature;humidity
66710;DHT22;53624;0.000;0.000;2022-12-11T00:01:39;5.50;99.90
66710;DHT22;53624;0.000;0.000;2022-12-11T00:04:06;5.40;99.90
66710;DHT22;53624;0.000;0.000;2022-12-11T00:06:34;5.50;99.90
66710;DHT22;53624;0.000;0.000;2022-12-11T00:09:01;5.40;99.90
66710;DHT22;53624;0.000;0.000;2022-12-11T00:11:29;5.50;99.90
66710;DHT22;53624;0.000;0.000;2022-12-11T00:13:58;5.50;99.90
66710;DHT22;53624;0.000;0.000;2022-12-11T00:16:25;5.40;99.90
66710;DHT22;53624;0.000;0.000;2022-12-11T00:18:53;5.50;99.90
66710;DHT22;53624;0.000;0.000;2022-12-11T00:21:20;5.40;99.90
66710;DHT22;53624;0.000;0.000;2022-12-11T00:23:48;5.40;99.90
66710;DHT22;53624;0.000;0.000;2022-12-11T00:26:15;5.40;99.90
66710;DHT22;53624;0.000;0.000;2022-12-11T00:28:43;5.50;99.90
66710;DHT22;53624;0.000;0.000;2022-12-11T00:31:13;5.40;99.90
66710;DHT22;53624;0.000;0.000;2022-12-11T00:33:41;5.40;99.90
66710;DHT22;53624;0.000;0.000;2022-12-11T00:36:12;5.40;99.90
66710;DHT22;53624;0.000;0.000;2022-12-11T00:38:40;5.40;99.90
66710;DHT22;53624;0.000;0.000;2022-12-11T00:41:08;5.40;99.90
66710;DHT22;53624;0.000;0.000;2022-12-11T00:43:36;5.40;99.90
66710;DHT22;53624;0.000;0.000;2022-12-11T00:46:03;5.40;99.90
66710;DHT22;53624;0.000;0.000;2022-12-11T00:48:32;5.40;99.90
66710;DHT22;53624;0.000;0.000;2022-12-11T00:51:00;5.40;99.90
66710;DHT22;53624;0.000;0.000;2022-12-11T00:53:27;5.40;99.90
66710;DHT22;53624;0.000;0.000;2022-12-11T00:55:55;5.40;99.90
66710;DHT22;53624;0.000;0.000;2022-12-11T00:58:22;5.40;99.90
66710;DHT22;53624;0.000;0.000;2022-12-11T01:00:51;5.40;99.90
66710;DHT22;53624;0.000;0.000;2022-12-11T01:03:18;5.40;99.90
66710;DHT22;53624;0.000;0.000;2022-12-11T01:05:53;5.40;99.90
66710;DHT22;53624;0.000;0.000;2022-12-11T01:08:21;5.40;99.90
66710;DHT22;53624;0.000;0.000;2022-12-11T01:10:48;5.40;99.90
66710;DHT22;53624;0.000;0.000;2022-12-11T01:13:16;5.40;99.90
66710;DHT22;53624;0.000;0.000;2022-12-11T01:15:44;5.40;99.90
66710;DHT22;53624;0.000;0.000;2022-12-11T01:18:12;5.40;99.90
66710;DHT22;53624;0.000;0.000;2022-12-11T01:20:40;5.40;99.90
66710;DHT22;53624;0.000;0.000;2022-12-11T01:23:10;5.40;99.90
66710;DHT22;53624;0.000;0.000;2022-12-11T01:25:39;5.30;99.90
66710;DHT22;53624;0.000;0.000;2022-12-11T01:28:06;5.40;99.90
66710;DHT22;53624;0.000;0.000;2022-12-11T01:30:34;5.40;99.90
66710;DHT22;53624;0.000;0.000;2022-12-11T01:33:02;5.30;99.90
66710;DHT22;53624;0.000;0.000;2022-12-11T01:35:29;5.30;99.90
66710;DHT22;53624;0.000;0.000;2022-12-11T01:37:57;5.30;99.90
66710;DHT22;53624;0.000;0.000;2022-12-11T01:40:26;5.30;99.90
66710;DHT22;53624;0.000;0.000;2022-12-11T01:42:54;5.40;99.90
66710;DHT22;53624;0.000;0.000;2022-12-11T01:45:25;5.30;99.90
66710;DHT22;53624;0.000;0.000;2022-12-11T01:47:54;5.30;99.90
66710;DHT22;53624;0.000;0.000;2022-12-11T01:50:22;5.30;99.90
66710;DHT22;53624;0.000;0.000;2022-12-11T01:52:50;5.30;99.90
66710;DHT22;53624;0.000;0.000;2022-12-11T01:55:18;5.30;99.90
66710;DHT22;53624;0.000;0.000;2022-12-11T01:57:48;5.30;99.90
66710;DHT22;53624;0.000;0.000;2022-12-11T02:00:17;5.30;99.90
66710;DHT22;53624;0.000;0.000;2022-12-11T02:02:45;5.30;99.90
66710;DHT22;53624;0.000;0.000;2022-12-11T02:05:12;5.30;99.90
66710;DHT22;53624;0.000;0.000;2022-12-11T02:07:41;5.30;99.90
66710;DHT22;53624;0.000;0.000;2022-12-11T02:10:09;5.30;99.90
66710;DHT22;53624;0.000;0.000;2022-12-11T02:12:40;5.30;99.90
66710;DHT22;53624;0.000;0.000;2022-12-11T02:15:11;5.30;99.90
66710;DHT22;53624;0.000;0.000;2022-12-11T02:17:42;5.30;99.90
66710;DHT22;53624;0.000;0.000;2022-12-11T02:20:12;5.30;99.90
66710;DHT22;53624;0.000;0.000;2022-12-11T02:25:29;5.30;99.90
66710;DHT22;53624;0.000;0.000;2022-12-11T02:28:06;5.30;99.90
66710;DHT22;53624;0.000;0.000;2022-12-11T02:30:35;5.30;99.90
66710;DHT22;53624;0.000;0.000;2022-12-11T02:33:03;5.30;99.90
66710;DHT22;53624;0.000;0.000;2022-12-11T02:35:32;5.30;99.90
66710;DHT22;53624;0.000;0.000;2022-12-11T02:38:01;5.30;99.90
66710;DHT22;53624;0.000;0.000;2022-12-11T02:40:30;5.30;99.90
66710;DHT22;53624;0.000;0.000;2022-12-11T02:43:00;5.30;99.90
66710;DHT22;53624;0.000;0.000;2022-12-11T02:45:30;5.20;99.90
66710;DHT22;53624;0.000;0.000;2022-12-11T02:47:58;5.30;99.90
66710;DHT22;53624;0.000;0.000;2022-12-11T02:50:27;5.30;99.90
66710;DHT22;53624;0.000;0.000;2022-12-11T02:52:55;5.20;99.90
66710;DHT22;53624;0.000;0.000;2022-12-11T02:55:23;5.20;99.90
66710;DHT22;53624;0.000;0.000;2022-12-11T02:57:55;5.20;99.90
66710;DHT22;53624;0.000;0.000;2022-12-11T03:00:25;5.20;99.90
66710;DHT22;53624;0.000;0.000;2022-12-11T03:02:53;5.20;99.90
66710;DHT22;53624;0.000;0.000;2022-12-11T03:05:21;5.20;99.90
66710;DHT22;53624;0.000;0.000;2022-12-11T03:07:49;5.20;99.90
66710;DHT22;53624;0.000;0.000;2022-12-11T03:10:16;5.20;99.90
66710;DHT22;53624;0.000;0.000;2022-12-11T03:12:45;5.20;99.90
66710;DHT22;53624;0.000;0.000;2022-12-11T03:15:14;5.20;99.90
66710;DHT22;53624;0.000;0.000;2022-12-11T03:17:45;5.20;99.90
66710;DHT22;53624;0.000;0.000;2022-12-11T03:20:20;5.20;99.90
66710;DHT22;53624;0.000;0.000;2022-12-11T03:22:52;5.20;99.90
66710;DHT22;53624;0.000;0.000;2022-12-11T03:25:25;5.20;99.90
66710;DHT22;53624;0.000;0.000;2022-12-11T03:27:57;5.20;99.90
66710;DHT22;53624;0.000;0.000;2022-12-11T03:30:24;5.20;99.90
66710;DHT22;53624;0.000;0.000;2022-12-11T03:32:55;5.20;99.90
66710;DHT22;53624;0.000;0.000;2022-12-11T03:35:25;5.20;99.90
66710;DHT22;53624;0.000;0.000;2022-12-11T03:37:54;5.20;99.90
66710;DHT22;53624;0.000;0.000;2022-12-11T03:40:23;5.20;99.90
66710;DHT22;53624;0.000;0.000;2022-12-11T03:42:51;5.20;99.90
66710;DHT22;53624;0.000;0.000;2022-12-11T03:45:19;5.20;99.90
66710;DHT22;53624;0.000;0.000;2022-12-11T03:47:48;5.20;99.90
66710;DHT22;53624;0.000;0.000;2022-12-11T03:50:16;5.20;99.90
66710;DHT22;53624;0.000;0.000;2022-12-11T03:52:46;5.20;99.90
66710;DHT22;53624;0.000;0.000;2022-12-11T03:55:15;5.20;99.90
66710;DHT22;53624;0.000;0.000;2022-12-11T03:57:42;5.20;99.90
66710;DHT22;53624;0.000;0.000;2022-12-11T04:00:11;5.20;99.90
66710;DHT22;53624;0.000;0.000;2022-12-11T04:02:39;5.20;99.90
66710;DHT22;53624;0.000;0.000;2022-12-11T04:05:07;5.20;99.90
66710;DHT22;53624;0.000;0.000;2022-12-11T04:07:35;5.20;99.90
66710;DHT22;53624;0.000;0.000;2022-12-11T04:10:05;5.10;99.90
66710;DHT22;53624;0.000;0.000;2022-12-11T04:12:33;5.20;99.90
66710;DHT22;53624;0.000;0.000;2022-12-11T04:15:00;5.10;99.90
66710;DHT22;53624;0.000;0.000;2022-12-11T04:17:27;5.10;99.90
66710;DHT22;53624;0.000;0.000;2022-12-11T04:20:12;5.10;99.90
66710;DHT22;53624;0.000;0.000;2022-12-11T04:22:56;5.10;99.90
66710;DHT22;53624;0.000;0.000;2022-12-11T04:25:43;5.10;99.90
66710;DHT22;53624;0.000;0.000;2022-12-11T04:28:10;5.10;99.90
66710;DHT22;53624;0.000;0.000;2022-12-11T04:30:38;5.10;99.90
66710;DHT22;53624;0.000;0.000;2022-12-11T04:33:05;5.10;99.90
66710;DHT22;53624;0.000;0.000;2022-12-11T04:35:33;5.10;99.90
66710;DHT22;53624;0.000;0.000;2022-12-11T04:38:00;5.10;99.90
66710;DHT22;53624;0.000;0.000;2022-12-11T04:40:28;5.10;99.90
66710;DHT22;53624;0.000;0.000;2022-12-11T04:42:56;5.10;99.90
66710;DHT22;53624;0.000;0.000;2022-12-11T04:45:24;5.10;99.90
66710;DHT22;53624;0.000;0.000;2022-12-11T04:47:51;5.10;99.90
66710;DHT22;53624;0.000;0.000;2022-12-11T04:50:19;5.10;99.90
66710;DHT22;53624;0.000;0.000;2022-12-11T04:52:46;5.10;99.90
66710;DHT22;53624;0.000;0.000;2022-12-11T04:55:14;5.10;99.90
66710;DHT22;53624;0.000;0.000;2022-12-11T04:57:41;5.10;99.90
66710;DHT22;53624;0.000;0.000;2022-12-11T05:00:11;5.10;99.90
66710;DHT22;53624;0.000;0.000;2022-12-11T05:02:39;5.10;99.90
66710;DHT22;53624;0.000;0.000;2022-12-11T05:05:08;5.10;99.90
66710;DHT22;53624;0.000;0.000;2022-12-11T05:07:36;5.10;99.90
66710;DHT22;53624;0.000;0.000;2022-12-11T05:10:04;5.10;99.90
66710;DHT22;53624;0.000;0.000;2022-12-11T05:12:31;5.10;99.90
66710;DHT22;53624;0.000;0.000;2022-12-11T05:14:59;5.10;99.90
66710;DHT22;53624;0.000;0.000;2022-12-11T05:17:28;5.10;99.90
66710;DHT22;53624;0.000;0.000;2022-12-11T05:19:55;5.10;99.90
66710;DHT22;53624;0.000;0.000;2022-12-11T05:22:23;5.10;99.90
66710;DHT22;53624;0.000;0.000;2022-12-11T05:24:50;5.10;99.90
66710;DHT22;53624;0.000;0.000;2022-12-11T05:27:18;5.10;99.90
66710;DHT22;53624;0.000;0.000;2022-12-11T05:29:45;5.10;99.90
66710;DHT22;53624;0.000;0.000;2022-12-11T05:32:13;5.10;99.90
66710;DHT22;53624;0.000;0.000;2022-12-11T05:34:42;5.10;99.90
66710;DHT22;53624;0.000;0.000;2022-12-11T05:37:10;5.10;99.90
66710;DHT22;53624;0.000;0.000;2022-12-11T05:39:37;5.10;99.90
66710;DHT22;53624;0.000;0.000;2022-12-11T05:42:05;5.00;99.90
66710;DHT22;53624;0.000;0.000;2022-12-11T05:44:32;5.10;99.90
66710;DHT22;53624;0.000;0.000;2022-12-11T05:47:00;5.00;99.90
66710;DHT22;53624;0.000;0.000;2022-12-11T05:49:27;5.00;99.90
66710;DHT22;53624;0.000;0.000;2022-12-11T05:51:56;5.00;99.90
66710;DHT22;53624;0.000;0.000;2022-12-11T05:54:23;5.00;99.90
66710;DHT22;53624;0.000;0.000;2022-12-11T05:56:51;5.00;99.90
66710;DHT22;53624;0.000;0.000;2022-12-11T05:59:18;5.10;99.90
66710;DHT22;53624;0.000;0.000;2022-12-11T06:01:46;5.00;99.90
66710;DHT22;53624;0.000;0.000;2022-12-11T06:04:13;5.00;99.90
66710;DHT22;53624;0.000;0.000;2022-12-11T06:06:41;5.00;99.90
66710;DHT22;53624;0.000;0.000;2022-12-11T06:09:11;5.00;99.90
66710;DHT22;53624;0.000;0.000;2022-12-11T06:11:39;5.00;99.90
66710;DHT22;53624;0.000;0.000;2022-12-11T06:14:08;5.00;99.90
66710;DHT22;53624;0.000;0.000;2022-12-11T06:16:36;5.00;99.90
66710;DHT22;53624;0.000;0.000;2022-12-11T06:19:03;5.00;99.90
66710;DHT22;53624;0.000;0.000;2022-12-11T06:21:31;5.00;99.90
66710;DHT22;53624;0.000;0.000;2022-12-11T06:24:00;5.00;99.90
66710;DHT22;53624;0.000;0.000;2022-12-11T06:26:29;5.00;99.90
66710;DHT22;53624;0.000;0.000;2022-12-11T06:28:57;5.00;99.90
66710;DHT22;53624;0.000;0.000;2022-12-11T06:31:24;5.00;99.90
66710;DHT22;53624;0.000;0.000;2022-12-11T06:33:52;5.00;99.90
66710;DHT22;53624;0.000;0.000;2022-12-11T06:36:20;5.00;99.90
66710;DHT22;53624;0.000;0.000;2022-12-11T06:38:48;5.00;99.90
66710;DHT22;53624;0.000;0.000;2022-12-11T06:41:16;5.00;99.90
66710;DHT22;53624;0.000;0.000;2022-12-11T06:43:45;5.00;99.90
66710;DHT22;53624;0.000;0.000;2022-12-11T06:46:13;5.00;99.90
66710;DHT22;53624;0.000;0.000;2022-12-11T06:48:41;5.00;99.90
66710;DHT22;53624;0.000;0.000;2022-12-11T06:51:09;5.00;99.90
66710;DHT22;53624;0.000;0.000;2022-12-11T06:53:37;4.90;99.90
66710;DHT22;53624;0.000;0.000;2022-12-11T06:56:05;4.90;99.90
66710;DHT22;53624;0.000;0.000;2022-12-11T06:58:33;4.90;99.90
66710;DHT22;53624;0.000;0.000;2022-12-11T07:01:02;5.00;99.90
66710;DHT22;53624;0.000;0.000;2022-12-11T07:03:30;5.00;99.90
66710;DHT22;53624;0.000;0.000;2022-12-11T07:05:59;5.00;99.90
66710;DHT22;53624;0.000;0.000;2022-12-11T07:08:27;4.90;99.90
66710;DHT22;53624;0.000;0.000;2022-12-11T07:11:00;4.90;99.90
66710;DHT22;53624;0.000;0.000;2022-12-11T07:13:28;4.90;99.90
66710;DHT22;53624;0.000;0.000;2022-12-11T07:15:56;4.90;99.90
66710;DHT22;53624;0.000;0.000;2022-12-11T07:18:25;4.90;99.90
66710;DHT22;53624;0.000;0.000;2022-12-11T07:20:52;4.90;99.90
66710;DHT22;53624;0.000;0.000;2022-12-11T07:23:20;4.90;99.90
66710;DHT22;53624;0.000;0.000;2022-12-11T07:25:48;4.90;99.90
66710;DHT22;53624;0.000;0.000;2022-12-11T07:28:15;4.90;99.90
66710;DHT22;53624;0.000;0.000;2022-12-11T07:30:42;4.90;99.90
66710;DHT22;53624;0.000;0.000;2022-12-11T07:33:10;4.90;99.90
66710;DHT22;53624;0.000;0.000;2022-12-11T07:35:39;4.90;99.90
66710;DHT22;53624;0.000;0.000;2022-12-11T07:38:06;4.90;99.90
66710;DHT22;53624;0.000;0.000;2022-12-11T07:40:34;4.90;99.90
66710;DHT22;53624;0.000;0.000;2022-12-11T07:43:01;4.90;99.90
66710;DHT22;53624;0.000;0.000;2022-12-11T07:45:29;4.90;99.90
66710;DHT22;53624;0.000;0.000;2022-12-11T07:47:56;4.90;99.90
66710;DHT22;53624;0.000;0.000;2022-12-11T07:50:24;4.90;99.90
66710;DHT22;53624;0.000;0.000;2022-12-11T07:52:53;5.00;99.90
66710;DHT22;53624;0.000;0.000;2022-12-11T07:55:20;5.00;99.90
66710;DHT22;53624;0.000;0.000;2022-12-11T07:57:51;5.10;99.90
66710;DHT22;53624;0.000;0.000;2022-12-11T08:00:18;5.00;99.90
66710;DHT22;53624;0.000;0.000;2022-12-11T08:02:46;5.00;99.90
66710;DHT22;53624;0.000;0.000;2022-12-11T08:05:13;5.00;99.90
66710;DHT22;53624;0.000;0.000;2022-12-11T08:07:41;5.00;99.90
66710;DHT22;53624;0.000;0.000;2022-12-11T08:10:10;5.00;99.90
66710;DHT22;53624;0.000;0.000;2022-12-11T08:12:38;5.00;99.90
66710;DHT22;53624;0.000;0.000;2022-12-11T08:15:06;5.00;99.90
66710;DHT22;53624;0.000;0.000;2022-12-11T08:17:34;5.00;99.90
66710;DHT22;53624;0.000;0.000;2022-12-11T08:20:02;5.00;99.90
66710;DHT22;53624;0.000;0.000;2022-12-11T08:22:30;5.00;99.90
66710;DHT22;53624;0.000;0.000;2022-12-11T08:24:57;5.00;99.90
66710;DHT22;53624;0.000;0.000;2022-12-11T08:27:29;5.00;99.90
66710;DHT22;53624;0.000;0.000;2022-12-11T08:29:56;5.00;99.90
66710;DHT22;53624;0.000;0.000;2022-12-11T08:32:24;5.00;99.90
66710;DHT22;53624;0.000;0.000;2022-12-11T08:34:51;5.10;99.90
66710;DHT22;53624;0.000;0.000;2022-12-11T08:37:19;5.00;99.90
66710;DHT22;53624;0.000;0.000;2022-12-11T08:39:46;5.10;99.90
66710;DHT22;53624;0.000;0.000;2022-12-11T08:42:13;5.10;99.90
66710;DHT22;53624;0.000;0.000;2022-12-11T08:44:43;5.10;99.90
66710;DHT22;53624;0.000;0.000;2022-12-11T08:47:10;5.10;99.90
66710;DHT22;53624;0.000;0.000;2022-12-11T08:49:40;5.10;99.90
66710;DHT22;53624;0.000;0.000;2022-12-11T08:52:07;5.20;99.90
66710;DHT22;53624;0.000;0.000;2022-12-11T08:54:35;5.20;99.90
66710;DHT22;53624;0.000;0.000;2022-12-11T08:57:03;5.30;99.90
66710;DHT22;53624;0.000;0.000;2022-12-11T08:59:31;5.40;99.90
66710;DHT22;53624;0.000;0.000;2022-12-11T09:02:00;5.40;99.90
66710;DHT22;53624;0.000;0.000;2022-12-11T09:04:27;5.40;99.90
66710;DHT22;53624;0.000;0.000;2022-12-11T09:06:55;5.40;99.90
66710;DHT22;53624;0.000;0.000;2022-12-11T09:09:22;5.30;99.90
66710;DHT22;53624;0.000;0.000;2022-12-11T09:11:50;5.30;99.90
66710;DHT22;53624;0.000;0.000;2022-12-11T09:14:17;5.30;99.90
66710;DHT22;53624;0.000;0.000;2022-12-11T09:16:46;5.30;99.90
66710;DHT22;53624;0.000;0.000;2022-12-11T09:19:15;5.30;99.90
66710;DHT22;53624;0.000;0.000;2022-12-11T09:21:43;5.40;99.90
66710;DHT22;53624;0.000;0.000;2022-12-11T09:24:11;5.40;99.90
66710;DHT22;53624;0.000;0.000;2022-12-11T09:26:38;5.40;99.90
66710;DHT22;53624;0.000;0.000;2022-12-11T09:29:06;5.40;99.90
66710;DHT22;53624;0.000;0.000;2022-12-11T09:31:35;5.40;99.90
66710;DHT22;53624;0.000;0.000;2022-12-11T09:34:03;5.40;99.90
66710;DHT22;53624;0.000;0.000;2022-12-11T09:36:33;5.40;99.90
66710;DHT22;53624;0.000;0.000;2022-12-11T09:39:01;5.40;99.90
66710;DHT22;53624;0.000;0.000;2022-12-11T09:41:32;5.50;99.90
66710;DHT22;53624;0.000;0.000;2022-12-11T09:44:02;5.50;99.90
66710;DHT22;53624;0.000;0.000;2022-12-11T09:46:33;5.50;99.90
66710;DHT22;53624;0.000;0.000;2022-12-11T09:49:01;5.50;99.90
66710;DHT22;53624;0.000;0.000;2022-12-11T09:51:29;5.50;99.90
66710;DHT22;53624;0.000;0.000;2022-12-11T09:54:02;5.50;99.90
66710;DHT22;53624;0.000;0.000;2022-12-11T09:56:31;5.60;99.90
66710;DHT22;53624;0.000;0.000;2022-12-11T09:59:01;5.60;99.90
66710;DHT22;53624;0.000;0.000;2022-12-11T10:01:33;5.60;99.90
66710;DHT22;53624;0.000;0.000;2022-12-11T10:06:49;5.60;99.90
66710;DHT22;53624;0.000;0.000;2022-12-11T10:09:24;5.60;99.90
66710;DHT22;53624;0.000;0.000;2022-12-11T10:11:58;5.70;99.90
66710;DHT22;53624;0.000;0.000;2022-12-11T10:14:32;5.70;99.90
66710;DHT22;53624;0.000;0.000;2022-12-11T10:17:02;5.70;99.90
66710;DHT22;53624;0.000;0.000;2022-12-11T10:19:31;5.70;99.90
66710;DHT22;53624;0.000;0.000;2022-12-11T10:21:59;5.70;99.90
66710;DHT22;53624;0.000;0.000;2022-12-11T10:24:32;5.80;99.90
66710;DHT22;53624;0.000;0.000;2022-12-11T10:27:08;5.80;99.90
66710;DHT22;53624;0.000;0.000;2022-12-11T10:29:39;5.90;99.90
66710;DHT22;53624;0.000;0.000;2022-12-11T10:32:10;5.90;99.90
66710;DHT22;53624;0.000;0.000;2022-12-11T10:34:43;5.90;99.90
66710;DHT22;53624;0.000;0.000;2022-12-11T10:37:11;5.90;99.90
66710;DHT22;53624;0.000;0.000;2022-12-11T10:39:40;5.90;99.90
66710;DHT22;53624;0.000;0.000;2022-12-11T10:42:12;5.90;99.90
66710;DHT22;53624;0.000;0.000;2022-12-11T10:44:40;5.90;99.90
66710;DHT22;53624;0.000;0.000;2022-12-11T10:47:09;6.00;99.90
66710;DHT22;53624;0.000;0.000;2022-12-11T10:49:37;5.90;99.90
66710;DHT22;53624;0.000;0.000;2022-12-11T10:52:09;6.00;99.90
66710;DHT22;53624;0.000;0.000;2022-12-11T10:54:37;5.90;99.90
66710;DHT22;53624;0.000;0.000;2022-12-11T10:57:07;6.00;99.90
66710;DHT22;53624;0.000;0.000;2022-12-11T10:59:36;6.00;99.90
66710;DHT22;53624;0.000;0.000;2022-12-11T11:02:05;6.00;99.90
66710;DHT22;53624;0.000;0.000;2022-12-11T11:04:34;6.00;99.90
66710;DHT22;53624;0.000;0.000;2022-12-11T11:07:07;6.00;99.90
66710;DHT22;53624;0.000;0.000;2022-12-11T11:09:37;6.00;99.90
66710;DHT22;53624;0.000;0.000;2022-12-11T11:12:17;6.00;99.90
66710;DHT22;53624;0.000;0.000;2022-12-11T11:14:45;6.00;99.90
66710;DHT22;53624;0.000;0.000;2022-12-11T11:17:13;6.10;99.90
66710;DHT22;53624;0.000;0.000;2022-12-11T11:19:41;6.10;99.90
66710;DHT22;53624;0.000;0.000;2022-12-11T11:22:13;6.10;99.90
66710;DHT22;53624;0.000;0.000;2022-12-11T11:24:42;6.10;99.90
66710;DHT22;53624;0.000;0.000;2022-12-11T11:27:11;6.10;99.90
66710;DHT22;53624;0.000;0.000;2022-12-11T11:29:40;6.20;99.90
66710;DHT22;53624;0.000;0.000;2022-12-11T11:32:13;6.10;99.90
66710;DHT22;53624;0.000;0.000;2022-12-11T11:34:42;6.20;99.90
66710;DHT22;53624;0.000;0.000;2022-12-11T11:37:21;6.20;99.90
66710;DHT22;53624;0.000;0.000;2022-12-11T11:39:49;6.20;99.90
66710;DHT22;53624;0.000;0.000;2022-12-11T11:42:20;6.20;99.90
66710;DHT22;53624;0.000;0.000;2022-12-11T11:44:56;6.30;99.90
66710;DHT22;53624;0.000;0.000;2022-12-11T11:47:26;6.30;99.90
66710;DHT22;53624;0.000;0.000;2022-12-11T11:49:55;6.30;99.90
66710;DHT22;53624;0.000;0.000;2022-12-11T11:52:28;6.40;99.90
66710;DHT22;53624;0.000;0.000;2022-12-11T11:54:58;6.40;99.90
66710;DHT22;53624;0.000;0.000;2022-12-11T11:57:32;6.40;99.90
66710;DHT22;53624;0.000;0.000;2022-12-11T12:00:04;6.40;99.90
66710;DHT22;53624;0.000;0.000;2022-12-11T12:02:39;6.40;99.90
66710;DHT22;53624;0.000;0.000;2022-12-11T12:05:10;6.40;99.90
66710;DHT22;53624;0.000;0.000;2022-12-11T12:07:39;6.40;99.90
66710;DHT22;53624;0.000;0.000;2022-12-11T12:10:10;6.40;99.90
66710;DHT22;53624;0.000;0.000;2022-12-11T12:12:40;6.40;99.90
66710;DHT22;53624;0.000;0.000;2022-12-11T12:15:24;6.40;99.90
66710;DHT22;53624;0.000;0.000;2022-12-11T12:17:56;6.40;99.90
66710;DHT22;53624;0.000;0.000;2022-12-11T12:20:31;6.40;99.90
66710;DHT22;53624;0.000;0.000;2022-12-11T12:23:04;6.40;99.90
66710;DHT22;53624;0.000;0.000;2022-12-11T12:25:34;6.40;99.90
66710;DHT22;53624;0.000;0.000;2022-12-11T12:28:09;6.30;99.90
66710;DHT22;53624;0.000;0.000;2022-12-11T12:30:44;6.30;99.90
66710;DHT22;53624;0.000;0.000;2022-12-11T12:33:18;6.30;99.90
66710;DHT22;53624;0.000;0.000;2022-12-11T12:35:49;6.30;99.90
66710;DHT22;53624;0.000;0.000;2022-12-11T12:38:22;6.30;99.90
66710;DHT22;53624;0.000;0.000;2022-12-11T12:40:55;6.30;99.90
66710;DHT22;53624;0.000;0.000;2022-12-11T12:43:41;6.30;99.90
66710;DHT22;53624;0.000;0.000;2022-12-11T12:46:13;6.30;99.90
66710;DHT22;53624;0.000;0.000;2022-12-11T12:48:44;6.30;99.90
66710;DHT22;53624;0.000;0.000;2022-12-11T12:51:12;6.20;99.90
66710;DHT22;53624;0.000;0.000;2022-12-11T12:53:41;6.30;99.90
66710;DHT22;53624;0.000;0.000;2022-12-11T12:56:10;6.20;99.90
66710;DHT22;53624;0.000;0.000;2022-12-11T12:58:39;6.20;99.90
66710;DHT22;53624;0.000;0.000;2022-12-11T13:01:07;6.20;99.90
66710;DHT22;53624;0.000;0.000;2022-12-11T13:03:48;6.20;99.90
66710;DHT22;53624;0.000;0.000;2022-12-11T13:06:26;6.20;99.90
66710;DHT22;53624;0.000;0.000;2022-12-11T13:08:54;6.20;99.90
66710;DHT22;53624;0.000;0.000;2022-12-11T13:11:29;6.10;99.90
66710;DHT22;53624;0.000;0.000;2022-12-11T13:14:00;6.10;99.90
66710;DHT22;53624;0.000;0.000;2022-12-11T13:16:33;6.10;99.90
66710;DHT22;53624;0.000;0.000;2022-12-11T13:19:03;6.10;99.90
66710;DHT22;53624;0.000;0.000;2022-12-11T13:21:42;6.10;99.90
66710;DHT22;53624;0.000;0.000;2022-12-11T13:24:13;6.10;99.90
66710;DHT22;53624;0.000;0.000;2022-12-11T13:26:41;6.00;99.90
66710;DHT22;53624;0.000;0.000;2022-12-11T13:31:55;6.00;99.90
66710;DHT22;53624;0.000;0.000;2022-12-11T13:34:25;6.00;99.90
66710;DHT22;53624;0.000;0.000;2022-12-11T13:36:54;6.00;99.90
66710;DHT22;53624;0.000;0.000;2022-12-11T13:39:23;6.00;99.90
66710;DHT22;53624;0.000;0.000;2022-12-11T13:41:51;6.00;99.90
66710;DHT22;53624;0.000;0.000;2022-12-11T13:44:20;6.00;99.90
66710;DHT22;53624;0.000;0.000;2022-12-11T13:46:49;6.00;99.90
66710;DHT22;53624;0.000;0.000;2022-12-11T13:49:20;6.00;99.90
66710;DHT22;53624;0.000;0.000;2022-12-11T13:51:53;6.00;99.90
66710;DHT22;53624;0.000;0.000;2022-12-11T13:54:21;6.00;99.90
66710;DHT22;53624;0.000;0.000;2022-12-11T13:56:59;5.90;99.90
66710;DHT22;53624;0.000;0.000;2022-12-11T13:59:29;6.00;99.90
66710;DHT22;53624;0.000;0.000;2022-12-11T14:01:57;5.90;99.90
66710;DHT22;53624;0.000;0.000;2022-12-11T14:04:26;5.90;99.90
66710;DHT22;53624;0.000;0.000;2022-12-11T14:06:56;5.90;99.90
66710;DHT22;53624;0.000;0.000;2022-12-11T14:09:24;5.90;99.90
66710;DHT22;53624;0.000;0.000;2022-12-11T14:11:53;5.90;99.90
66710;DHT22;53624;0.000;0.000;2022-12-11T14:14:23;5.90;99.90
66710;DHT22;53624;0.000;0.000;2022-12-11T14:16:51;5.90;99.90
66710;DHT22;53624;0.000;0.000;2022-12-11T14:19:20;5.90;99.90
66710;DHT22;53624;0.000;0.000;2022-12-11T14:21:57;5.90;99.90
66710;DHT22;53624;0.000;0.000;2022-12-11T14:24:25;5.90;99.90
66710;DHT22;53624;0.000;0.000;2022-12-11T14:26:53;5.90;99.90
66710;DHT22;53624;0.000;0.000;2022-12-11T14:29:24;5.90;99.90
66710;DHT22;53624;0.000;0.000;2022-12-11T14:31:52;5.90;99.90
66710;DHT22;53624;0.000;0.000;2022-12-11T14:34:22;5.80;99.90
66710;DHT22;53624;0.000;0.000;2022-12-11T14:36:51;5.80;99.90
66710;DHT22;53624;0.000;0.000;2022-12-11T14:39:21;5.80;99.90
66710;DHT22;53624;0.000;0.000;2022-12-11T14:41:51;5.80;99.90
66710;DHT22;53624;0.000;0.000;2022-12-11T14:44:21;5.80;99.90
66710;DHT22;53624;0.000;0.000;2022-12-11T14:46:51;5.80;99.90
66710;DHT22;53624;0.000;0.000;2022-12-11T14:49:22;5.80;99.90
66710;DHT22;53624;0.000;0.000;2022-12-11T14:51:51;5.80;99.90
66710;DHT22;53624;0.000;0.000;2022-12-11T14:54:25;5.80;99.90
66710;DHT22;53624;0.000;0.000;2022-12-11T14:56:54;5.80;99.90
66710;DHT22;53624;0.000;0.000;2022-12-11T14:59:21;5.80;99.90
66710;DHT22;53624;0.000;0.000;2022-12-11T15:01:57;5.80;99.90
66710;DHT22;53624;0.000;0.000;2022-12-11T15:04:28;5.80;99.90
66710;DHT22;53624;0.000;0.000;2022-12-11T15:06:56;5.80;99.90
66710;DHT22;53624;0.000;0.000;2022-12-11T15:09:27;5.80;99.90
66710;DHT22;53624;0.000;0.000;2022-12-11T15:11:55;5.70;99.90
66710;DHT22;53624;0.000;0.000;2022-12-11T15:14:23;5.70;99.90
66710;DHT22;53624;0.000;0.000;2022-12-11T15:16:51;5.70;99.90
66710;DHT22;53624;0.000;0.000;2022-12-11T15:19:21;5.70;99.90
66710;DHT22;53624;0.000;0.000;2022-12-11T15:21:49;5.70;99.90
66710;DHT22;53624;0.000;0.000;2022-12-11T15:24:21;5.70;99.90
66710;DHT22;53624;0.000;0.000;2022-12-11T15:26:52;5.70;99.90
66710;DHT22;53624;0.000;0.000;2022-12-11T15:29:24;5.70;99.90
66710;DHT22;53624;0.000;0.000;2022-12-11T15:31:59;5.70;99.90
66710;DHT22;53624;0.000;0.000;2022-12-11T15:34:30;5.70;99.90
66710;DHT22;53624;0.000;0.000;2022-12-11T15:36:58;5.70;99.90
66710;DHT22;53624;0.000;0.000;2022-12-11T15:39:25;5.70;99.90
66710;DHT22;53624;0.000;0.000;2022-12-11T15:41:54;5.70;99.90
66710;DHT22;53624;0.000;0.000;2022-12-11T15:44:22;5.60;99.90
66710;DHT22;53624;0.000;0.000;2022-12-11T15:46:50;5.60;99.90
66710;DHT22;53624;0.000;0.000;2022-12-11T15:49:17;5.60;99.90
66710;DHT22;53624;0.000;0.000;2022-12-11T15:51:49;5.60;99.90
66710;DHT22;53624;0.000;0.000;2022-12-11T15:54:17;5.60;99.90
66710;DHT22;53624;0.000;0.000;2022-12-11T15:56:45;5.60;99.90
66710;DHT22;53624;0.000;0.000;2022-12-11T15:59:14;5.60;99.90
66710;DHT22;53624;0.000;0.000;2022-12-11T16:01:42;5.60;99.90
66710;DHT22;53624;0.000;0.000;2022-12-11T16:04:10;5.60;99.90
66710;DHT22;53624;0.000;0.000;2022-12-11T16:06:38;5.60;99.90
66710;DHT22;53624;0.000;0.000;2022-12-11T16:09:10;5.60;99.90
66710;DHT22;53624;0.000;0.000;2022-12-11T16:11:38;5.60;99.90
66710;DHT22;53624;0.000;0.000;2022-12-11T16:14:05;5.60;99.90
66710;DHT22;53624;0.000;0.000;2022-12-11T16:16:34;5.60;99.90
66710;DHT22;53624;0.000;0.000;2022-12-11T16:19:02;5.60;99.90
66710;DHT22;53624;0.000;0.000;2022-12-11T16:21:30;5.60;99.90
66710;DHT22;53624;0.000;0.000;2022-12-11T16:23:57;5.50;99.90